Time;durP1;ratioP1;P1;durP2;ratioP2;P2;SDS_P1;SDS_P2;PMS_P1;PMS_P2;Temp;Humidity;BMP_temperature;BMP_pressure;BME280_temperature;BME280_humidity;BME280_pressure;Samples;Min_cycle;Max_cycle;Signal;HPM_P1;HPM_P2
2023/10/05 00:00:47;;;;;;;5.57;3.67;;;;;;;14.34;60.61;94258.28;521851;28;883;-47
2023/10/05 00:01:17;;;;;;;7.07;3.88;;;;;;;14.34;60.60;94258.28;521798;28;940;-46
2023/10/05 00:01:45;;;;;;;6.53;4.00;;;;;;;14.34;60.76;94258.28;521796;28;901;-47
2023/10/05 00:02:17;;;;;;;5.07;3.92;;;;;;;14.34;60.72;94261.81;521872;28;801;-46
2023/10/05 00:02:32;;;;;;;4.90;3.63;;;;;;;14.35;60.72;94260.53;521838;28;916;-46
2023/10/05 00:02:48;;;;;;;5.38;3.53;;;;;;;14.35;60.77;94263.28;521894;28;885;-49
2023/10/05 00:03:05;;;;;;;6.27;3.60;;;;;;;14.35;60.72;94263.28;521829;28;884;-46
2023/10/05 00:03:21;;;;;;;5.53;4.07;;;;;;;14.37;60.63;94259.94;521776;28;865;-46
2023/10/05 00:03:38;;;;;;;5.57;4.00;;;;;;;14.35;60.88;94257.00;521848;28;777;-46
2023/10/05 00:03:53;;;;;;;7.30;3.80;;;;;;;14.16;60.74;94226.75;521829;28;849;-46
2023/10/05 00:04:09;;;;;;;7.38;3.95;;;;;;;14.36;60.75;94258.47;521790;28;955;-47
2023/10/05 00:04:24;;;;;;;6.67;4.17;;;;;;;14.36;60.79;94258.47;521802;28;844;-47
2023/10/05 00:04:41;;;;;;;6.28;3.83;;;;;;;14.36;60.89;94250.13;521932;28;881;-49
2023/10/05 00:04:57;;;;;;;7.78;3.63;;;;;;;14.37;60.93;94251.63;521887;28;856;-49
2023/10/05 00:05:12;;;;;;;6.70;3.67;;;;;;;14.36;60.96;94250.88;521731;28;1984;-45
2023/10/05 00:05:28;;;;;;;4.82;3.83;;;;;;;14.38;61.03;94253.09;521845;28;981;-49
2023/10/05 00:05:44;;;;;;;5.13;3.80;;;;;;;14.38;61.18;94253.84;521791;28;868;-46
2023/10/05 00:06:10;;;;;;;6.13;4.05;;;;;;;14.39;61.38;94254.59;521934;28;817;-46
2023/10/05 00:06:27;;;;;;;4.63;3.53;;;;;;;14.41;61.29;94252.00;521812;28;887;-45
2023/10/05 00:06:42;;;;;;;5.70;3.42;;;;;;;14.40;61.42;94256.06;521802;28;1963;-47
2023/10/05 00:06:58;;;;;;;6.65;3.78;;;;;;;14.41;61.49;94249.22;521979;28;832;-47
2023/10/05 00:07:33;;;;;;;6.57;4.22;;;;;;;14.41;61.39;94255.50;521878;28;761;-47
2023/10/05 00:07:48;;;;;;;5.00;3.93;;;;;;;14.42;61.52;94250.72;521688;28;886;-49
2023/10/05 00:08:07;;;;;;;5.22;4.35;;;;;;;14.43;61.48;94250.16;521734;28;844;-46
2023/10/05 00:08:23;;;;;;;5.88;4.30;;;;;;;14.44;61.56;94251.63;521691;28;1241;-46
2023/10/05 00:08:38;;;;;;;5.72;3.65;;;;;;;14.45;61.61;94252.34;521802;28;805;-46
2023/10/05 00:08:56;;;;;;;6.93;3.70;;;;;;;14.46;61.43;94256.63;521732;28;869;-45
2023/10/05 00:09:13;;;;;;;5.57;3.72;;;;;;;14.47;61.50;94255.31;521717;28;903;-46
2023/10/05 00:09:29;;;;;;;5.63;3.72;;;;;;;14.48;61.41;94254.03;521685;28;947;-46
2023/10/05 00:09:44;;;;;;;4.30;3.45;;;;;;;14.46;61.29;94251.06;521718;28;792;-46
2023/10/05 00:10:00;;;;;;;4.63;3.53;;;;;;;14.49;61.28;94240.91;521736;28;840;-46
2023/10/05 00:10:17;;;;;;;5.25;4.00;;;;;;;14.48;61.24;94248.47;521848;28;892;-45
2023/10/05 00:10:33;;;;;;;5.45;3.78;;;;;;;14.50;61.09;94245.13;521811;28;797;-46
2023/10/05 00:10:49;;;;;;;5.82;3.65;;;;;;;14.46;61.08;94244.78;521930;28;841;-46
2023/10/05 00:11:06;;;;;;;5.75;3.85;;;;;;;14.47;61.29;94244.22;521837;28;774;-45
2023/10/05 00:11:24;;;;;;;5.53;3.72;;;;;;;14.35;61.22;94232.00;521771;28;955;-46
2023/10/05 00:11:41;;;;;;;5.75;3.80;;;;;;;14.48;61.39;94250.50;521930;28;852;-45
2023/10/05 00:11:57;;;;;;;5.78;4.15;;;;;;;14.49;61.34;94246.44;521849;28;824;-45
2023/10/05 00:12:19;;;;;;;6.20;4.35;;;;;;;14.49;61.36;94249.94;521892;28;848;-47
2023/10/05 00:12:35;;;;;;;5.70;4.25;;;;;;;14.50;61.50;94245.13;521775;28;944;-47
2023/10/05 00:12:50;;;;;;;5.60;4.15;;;;;;;14.50;61.76;94251.44;521881;28;873;-46
2023/10/05 00:13:07;;;;;;;4.90;4.03;;;;;;;14.50;61.71;94251.44;521854;28;898;-45
2023/10/05 00:13:23;;;;;;;5.10;3.95;;;;;;;14.50;61.76;94251.44;521808;28;873;-46
2023/10/05 00:13:39;;;;;;;6.15;4.43;;;;;;;14.50;61.90;94251.44;521887;28;900;-46
2023/10/05 00:13:59;;;;;;;4.93;4.00;;;;;;;14.49;61.89;94247.16;521883;28;790;-46
2023/10/05 00:14:15;;;;;;;4.85;4.10;;;;;;;14.49;61.80;94244.38;521795;28;1132;-47
2023/10/05 00:14:30;;;;;;;5.50;4.13;;;;;;;14.49;61.93;94249.94;521879;28;847;-47
2023/10/05 00:14:48;;;;;;;7.18;4.18;;;;;;;14.50;61.86;94248.66;521866;28;797;-46
2023/10/05 00:15:23;;;;;;;6.63;4.28;;;;;;;14.49;61.80;94246.44;521843;28;994;-47
2023/10/05 00:15:39;;;;;;;5.72;4.10;;;;;;;14.52;61.75;94239.75;521855;28;943;-46
2023/10/05 00:15:54;;;;;;;4.87;3.87;;;;;;;14.51;61.69;94247.34;521749;28;1560;-45
2023/10/05 00:16:20;;;;;;;5.60;3.85;;;;;;;14.52;61.90;94242.53;521844;28;896;-46
2023/10/05 00:16:38;;;;;;;7.00;3.90;;;;;;;14.52;61.53;94246.06;521812;28;844;-46
2023/10/05 00:16:55;;;;;;;6.07;4.28;;;;;;;14.54;61.32;94248.28;521769;28;1121;-46
2023/10/05 00:17:10;;;;;;;5.80;4.15;;;;;;;14.56;60.98;94248.47;521823;28;857;-46
2023/10/05 00:17:26;;;;;;;5.13;3.85;;;;;;;14.54;61.04;94240.69;521830;28;886;-47
2023/10/05 00:17:41;;;;;;;6.13;4.17;;;;;;;14.55;60.78;94244.97;521783;28;868;-49
2023/10/05 00:17:57;;;;;;;6.20;4.07;;;;;;;14.55;60.72;94244.97;521855;28;837;-46
2023/10/05 00:18:18;;;;;;;5.13;3.83;;;;;;;14.40;60.56;94219.97;521838;28;871;-47
2023/10/05 00:18:34;;;;;;;5.75;3.90;;;;;;;14.57;60.63;94252.75;521847;28;845;-46
2023/10/05 00:18:51;;;;;;;4.85;3.72;;;;;;;14.53;60.75;94250.31;521837;28;913;-47
2023/10/05 00:19:12;;;;;;;5.38;3.53;;;;;;;14.52;61.11;94253.66;521867;28;883;-46
2023/10/05 00:19:30;;;;;;;5.70;3.50;;;;;;;14.41;61.62;94254.78;521819;28;987;-47
2023/10/05 00:19:46;;;;;;;4.80;3.30;;;;;;;14.35;62.05;94252.19;521623;28;900;-45
2023/10/05 00:20:07;;;;;;;4.73;3.50;;;;;;;14.29;62.34;94248.09;521713;28;931;-47
2023/10/05 00:20:25;;;;;;;4.75;3.83;;;;;;;14.28;62.38;94249.34;521631;28;895;-47
2023/10/05 00:20:41;;;;;;;5.65;4.22;;;;;;;14.28;62.49;94250.09;521641;28;1173;-45
2023/10/05 00:20:59;;;;;;;5.68;4.10;;;;;;;14.28;62.57;94252.13;521669;28;907;-47
2023/10/05 00:21:18;;;;;;;6.95;4.03;;;;;;;14.28;62.44;94252.13;521616;28;907;-45
2023/10/05 00:21:35;;;;;;;6.72;4.22;;;;;;;14.28;62.39;94250.09;521636;28;955;-46
2023/10/05 00:21:51;;;;;;;5.85;4.03;;;;;;;14.29;62.29;94248.81;521712;28;840;-46
2023/10/05 00:22:07;;;;;;;5.70;3.80;;;;;;;14.29;62.20;94251.59;521695;28;895;-45
2023/10/05 00:22:22;;;;;;;5.82;4.20;;;;;;;14.30;62.36;94253.09;521737;28;872;-47
2023/10/05 00:22:40;;;;;;;7.20;3.83;;;;;;;14.30;62.45;94249.56;521843;28;892;-46
2023/10/05 00:22:57;;;;;;;6.35;3.60;;;;;;;14.31;62.51;94251.78;521827;28;848;-47
2023/10/05 00:23:12;;;;;;;5.70;3.97;;;;;;;14.31;62.46;94248.28;521815;28;1086;-46
2023/10/05 00:23:29;;;;;;;5.97;4.18;;;;;;;14.30;62.53;94252.34;521716;28;943;-47
2023/10/05 00:23:53;;;;;;;5.53;3.88;;;;;;;14.28;62.84;94247.31;521858;28;833;-46
2023/10/05 00:24:11;;;;;;;7.00;4.30;;;;;;;14.30;63.03;94253.09;521828;28;860;-46
2023/10/05 00:24:37;;;;;;;6.90;4.47;;;;;;;14.30;63.20;94246.78;521840;28;857;-47
2023/10/05 00:24:52;;;;;;;5.82;4.40;;;;;;;14.31;63.31;94251.78;521748;28;909;-46
2023/10/05 00:25:10;;;;;;;5.60;4.40;;;;;;;14.33;63.32;94245.69;521790;28;1914;-46
2023/10/05 00:25:27;;;;;;;5.70;4.45;;;;;;;14.32;63.51;94252.53;521709;28;877;-46
2023/10/05 00:25:43;;;;;;;6.25;4.10;;;;;;;14.33;63.52;94251.25;521666;28;899;-46
2023/10/05 00:25:58;;;;;;;6.20;3.90;;;;;;;14.34;63.59;94252.72;521835;28;912;-47
2023/10/05 00:26:14;;;;;;;6.20;4.53;;;;;;;14.34;63.73;94249.94;521800;28;805;-45
2023/10/05 00:26:36;;;;;;;8.10;4.70;;;;;;;14.32;64.30;94249.75;521909;28;903;-46
2023/10/05 00:26:56;;;;;;;8.57;4.78;;;;;;;14.28;64.09;94246.56;521836;28;892;-47
2023/10/05 00:27:13;;;;;;;5.75;4.53;;;;;;;14.32;64.29;94249.75;521861;28;971;-46
2023/10/05 00:27:29;;;;;;;4.70;3.97;;;;;;;14.26;64.16;94240.84;521814;28;974;-46
2023/10/05 00:27:45;;;;;;;7.22;4.18;;;;;;;14.32;64.18;94250.50;521830;28;860;-46
2023/10/05 00:28:07;;;;;;;8.15;4.50;;;;;;;14.18;64.09;94228.97;521866;28;1076;-45
2023/10/05 00:28:24;;;;;;;7.45;4.75;;;;;;;14.32;64.37;94255.31;521772;28;876;-46
2023/10/05 00:28:44;;;;;;;9.93;4.50;;;;;;;14.33;64.43;94251.25;521689;28;2409;-45
2023/10/05 00:29:28;;;;;;;4.85;4.35;;;;;;;14.33;64.25;94252.00;521847;28;670;-46
2023/10/05 00:29:46;;;;;;;6.85;4.47;;;;;;;14.34;64.19;94247.91;521761;28;942;-45
2023/10/05 00:30:02;;;;;;;6.88;4.28;;;;;;;14.34;64.22;94252.72;521798;28;900;-49
2023/10/05 00:30:17;;;;;;;5.18;4.00;;;;;;;14.34;64.09;94253.47;521886;28;836;-46
2023/10/05 00:30:33;;;;;;;5.93;3.95;;;;;;;14.35;63.92;94257.00;521784;28;828;-48
2023/10/05 00:30:50;;;;;;;6.15;4.07;;;;;;;14.31;63.85;94249.00;521915;28;840;-46
2023/10/05 00:31:06;;;;;;;5.63;4.07;;;;;;;14.36;63.71;94253.66;521822;28;876;-46
2023/10/05 00:31:24;;;;;;;6.20;4.43;;;;;;;14.35;63.54;94254.97;521799;28;939;-46
2023/10/05 00:31:39;;;;;;;6.03;4.25;;;;;;;14.36;63.47;94255.69;521816;28;848;-46
2023/10/05 00:31:58;;;;;;;5.75;4.13;;;;;;;14.36;63.35;94261.97;521835;28;1559;-46
2023/10/05 00:32:33;;;;;;;6.25;4.13;;;;;;;14.34;63.31;94249.94;521768;28;919;-48
2023/10/05 00:32:57;;;;;;;8.32;4.20;;;;;;;14.37;63.25;94257.94;521885;28;1010;-46
2023/10/05 00:33:12;;;;;;;8.57;3.95;;;;;;;14.39;63.12;94255.34;521759;28;1306;-47
2023/10/05 00:33:28;;;;;;;7.37;4.10;;;;;;;14.39;63.21;94260.13;521810;28;848;-46
2023/10/05 00:33:45;;;;;;;7.00;4.40;;;;;;;14.39;63.31;94254.59;521709;28;907;-46
2023/10/05 00:34:02;;;;;;;8.77;4.65;;;;;;;14.41;63.21;94258.28;521708;28;1202;-47
2023/10/05 00:34:36;;;;;;;5.47;4.10;;;;;;;14.41;63.34;94258.28;521760;28;812;-49
2023/10/05 00:35:11;;;;;;;7.00;4.03;;;;;;;14.41;63.34;94258.28;521751;28;951;-46
2023/10/05 00:35:32;;;;;;;6.25;3.80;;;;;;;14.42;63.30;94254.19;521706;28;998;-46
2023/10/05 00:35:47;;;;;;;5.15;3.72;;;;;;;14.40;63.41;94256.06;521837;28;923;-46
2023/10/05 00:36:05;;;;;;;5.28;3.80;;;;;;;14.28;63.41;94238.25;521846;28;860;-46
2023/10/05 00:36:20;;;;;;;5.03;3.80;;;;;;;14.39;63.46;94254.59;521731;28;884;-46
2023/10/05 00:36:39;;;;;;;5.43;3.90;;;;;;;14.37;63.55;94265.50;521759;28;856;-45
2023/10/05 00:36:59;;;;;;;7.47;4.38;;;;;;;14.39;63.45;94252.56;521799;28;1107;-47
2023/10/05 00:37:14;;;;;;;7.72;4.25;;;;;;;14.39;63.33;94260.13;521733;28;951;-46
2023/10/05 00:37:29;;;;;;;6.97;3.90;;;;;;;14.39;63.33;94254.59;521790;28;893;-46
2023/10/05 00:37:46;;;;;;;6.70;4.00;;;;;;;14.38;63.34;94255.88;521760;28;873;-46
2023/10/05 00:38:19;;;;;;;6.45;4.28;;;;;;;14.39;63.21;94260.13;521851;28;907;-46
2023/10/05 00:38:35;;;;;;;5.25;4.20;;;;;;;14.39;62.84;94255.34;521814;28;844;-46
2023/10/05 00:38:51;;;;;;;5.30;3.78;;;;;;;14.38;62.53;94250.31;521777;28;877;-48
2023/10/05 00:39:09;;;;;;;7.00;3.72;;;;;;;14.37;62.76;94252.38;521807;28;880;-46
2023/10/05 00:39:25;;;;;;;7.28;3.80;;;;;;;14.37;62.62;94259.94;521812;28;850;-47
2023/10/05 00:39:46;;;;;;;6.93;4.15;;;;;;;14.36;62.60;94256.44;521816;28;959;-45
2023/10/05 00:40:04;;;;;;;7.43;4.25;;;;;;;14.35;62.58;94257.00;521808;28;1628;-46
2023/10/05 00:40:36;;;;;;;6.10;4.30;;;;;;;14.35;62.66;94265.31;521834;28;924;-46
2023/10/05 00:41:13;;;;;;;8.70;4.45;;;;;;;14.35;62.74;94259.78;521931;28;843;-47
2023/10/05 00:41:29;;;;;;;8.25;4.18;;;;;;;14.35;62.74;94259.78;521791;28;888;-46
2023/10/05 00:41:45;;;;;;;5.22;3.60;;;;;;;14.35;62.76;94265.31;521771;28;1553;-46
2023/10/05 00:42:08;;;;;;;5.90;3.63;;;;;;;14.35;62.62;94262.53;521845;28;999;-46
2023/10/05 00:42:24;;;;;;;5.10;3.42;;;;;;;14.35;62.47;94259.78;521778;28;868;-46
2023/10/05 00:42:39;;;;;;;6.03;3.85;;;;;;;14.34;62.44;94261.81;521763;28;896;-46
2023/10/05 00:43:00;;;;;;;5.97;4.07;;;;;;;14.28;62.46;94249.34;521735;28;889;-47
2023/10/05 00:43:34;;;;;;;6.95;4.07;;;;;;;14.34;62.43;94263.81;521865;28;812;-46
2023/10/05 00:43:49;;;;;;;5.95;3.92;;;;;;;14.33;62.46;94268.66;521814;28;844;-47
2023/10/05 00:44:05;;;;;;;5.23;3.97;;;;;;;14.33;62.56;94256.81;521702;28;890;-46
2023/10/05 00:44:21;;;;;;;5.13;4.07;;;;;;;14.32;62.47;94267.16;521769;28;890;-46
2023/10/05 00:44:39;;;;;;;5.70;4.23;;;;;;;14.32;62.55;94261.63;521727;28;821;-46
2023/10/05 00:44:54;;;;;;;6.38;4.60;;;;;;;14.32;62.46;94263.63;521780;28;919;-46
2023/10/05 00:45:12;;;;;;;6.68;4.53;;;;;;;14.32;62.69;94260.88;521714;28;1977;-48
2023/10/05 00:45:31;;;;;;;6.05;3.92;;;;;;;14.32;62.72;94260.88;521826;28;1649;-47
2023/10/05 00:45:47;;;;;;;6.35;3.85;;;;;;;14.30;62.73;94260.69;521746;28;1097;-45
2023/10/05 00:46:03;;;;;;;6.97;4.28;;;;;;;14.30;62.76;94264.22;521823;28;912;-46
2023/10/05 00:46:20;;;;;;;5.80;4.45;;;;;;;14.29;62.66;94262.72;521748;28;857;-45
2023/10/05 00:46:37;;;;;;;6.82;4.25;;;;;;;14.20;62.65;94248.63;521782;28;955;-48
2023/10/05 00:46:53;;;;;;;7.25;4.22;;;;;;;14.24;62.67;94271.19;521561;28;925;-46
2023/10/05 00:47:12;;;;;;;6.80;4.33;;;;;;;14.24;62.74;94257.31;521698;28;1019;-46
2023/10/05 00:47:27;;;;;;;7.47;4.45;;;;;;;14.23;62.89;94264.16;530281;27;979;-46
2023/10/05 00:47:43;;;;;;;5.55;3.97;;;;;;;14.23;62.92;94258.59;530311;27;877;-47
2023/10/05 00:48:13;;;;;;;5.50;4.03;;;;;;;14.24;63.00;94266.41;528203;28;871;-46
2023/10/05 00:48:34;;;;;;;6.10;4.22;;;;;;;14.25;62.96;94256.03;528122;28;904;-46
2023/10/05 00:49:04;;;;;;;6.53;4.25;;;;;;;14.26;63.11;94260.28;520798;28;963;-47
2023/10/05 00:49:27;;;;;;;5.97;4.28;;;;;;;14.27;63.10;94264.56;520790;28;848;-47
2023/10/05 00:49:52;;;;;;;5.53;4.22;;;;;;;14.27;62.98;94264.56;519512;28;897;-47
2023/10/05 00:50:10;;;;;;;4.10;3.60;;;;;;;14.28;63.03;94257.69;521648;28;892;-48
2023/10/05 00:50:25;;;;;;;5.10;4.18;;;;;;;14.29;62.72;94262.00;521586;28;881;-46
2023/10/05 00:50:41;;;;;;;5.88;4.45;;;;;;;14.30;62.73;94264.22;521701;28;888;-47
2023/10/05 00:50:59;;;;;;;7.43;4.00;;;;;;;14.30;62.73;94255.13;519530;28;916;-46
2023/10/05 00:51:23;;;;;;;7.43;3.97;;;;;;;14.32;62.60;94266.41;519533;28;936;-46
2023/10/05 00:51:40;;;;;;;7.13;4.40;;;;;;;14.32;62.51;94266.41;521625;28;986;-45
2023/10/05 00:52:19;;;;;;;6.40;4.15;;;;;;;14.32;62.54;94260.88;521649;28;821;-46
2023/10/05 00:52:34;;;;;;;4.57;3.75;;;;;;;14.34;62.25;94263.81;521212;28;1419;-46
2023/10/05 00:52:52;;;;;;;5.72;4.00;;;;;;;14.35;62.02;94266.06;521744;28;817;-46
2023/10/05 00:53:08;;;;;;;6.18;4.15;;;;;;;14.32;61.62;94258.84;521832;28;880;-47
2023/10/05 00:53:23;;;;;;;5.80;3.90;;;;;;;14.36;61.23;94266.78;521598;28;883;-47
2023/10/05 00:53:39;;;;;;;6.10;4.23;;;;;;;14.36;61.16;94261.97;521653;28;889;-45
2023/10/05 00:53:56;;;;;;;6.30;4.25;;;;;;;14.37;61.26;94262.72;519573;28;932;-46
2023/10/05 00:54:18;;;;;;;5.68;3.70;;;;;;;14.38;60.96;94264.19;517590;28;890;-46
2023/10/05 00:54:35;;;;;;;6.22;4.22;;;;;;;14.37;60.90;94269.03;517544;28;897;-46
2023/10/05 00:54:53;;;;;;;6.32;4.13;;;;;;;14.36;60.80;94267.53;517543;28;892;-46
2023/10/05 00:55:11;;;;;;;6.10;4.22;;;;;;;14.36;60.72;94261.22;517543;28;920;-47
2023/10/05 00:55:27;;;;;;;7.75;4.43;;;;;;;14.36;60.86;94267.53;519536;28;910;-46
2023/10/05 00:55:45;;;;;;;6.95;3.83;;;;;;;14.37;60.74;94263.47;519966;28;809;-48
2023/10/05 00:56:18;;;;;;;5.05;3.78;;;;;;;14.37;60.78;94263.47;518075;28;878;-48
2023/10/05 00:56:34;;;;;;;7.95;4.43;;;;;;;14.38;60.76;94267.72;517560;28;934;-46
2023/10/05 00:56:50;;;;;;;6.72;4.18;;;;;;;14.38;60.74;94264.94;517510;28;1531;-46
2023/10/05 00:57:09;;;;;;;5.93;4.20;;;;;;;14.39;60.77;94265.69;517550;28;841;-46
2023/10/05 00:57:24;;;;;;;7.25;4.22;;;;;;;14.40;60.82;94267.19;517421;28;877;-47
2023/10/05 00:57:40;;;;;;;7.47;4.20;;;;;;;14.40;60.87;94267.19;517567;28;861;-46
2023/10/05 00:57:55;;;;;;;6.43;4.57;;;;;;;14.40;60.99;94269.97;517954;28;822;-45
2023/10/05 00:58:14;;;;;;;7.28;4.65;;;;;;;14.39;61.22;94271.25;519594;28;794;-46
2023/10/05 00:58:37;;;;;;;7.85;4.38;;;;;;;14.40;61.07;94267.19;517560;28;1762;-46
2023/10/05 00:59:04;;;;;;;5.03;4.00;;;;;;;14.41;61.28;94268.66;515704;28;897;-47
2023/10/05 00:59:20;;;;;;;5.90;4.28;;;;;;;14.41;61.28;94265.88;517498;28;905;-47
2023/10/05 00:59:36;;;;;;;5.93;4.20;;;;;;;14.27;61.38;94245.09;517479;28;1012;-45
2023/10/05 01:00:28;;;;;;;4.60;4.13;;;;;;;14.39;61.52;94265.69;520346;28;796;-46
2023/10/05 01:00:50;;;;;;;6.03;4.30;;;;;;;14.41;61.50;94268.66;521676;28;915;-47
2023/10/05 01:01:08;;;;;;;4.65;4.00;;;;;;;14.40;61.43;94261.63;521675;28;950;-47
2023/10/05 01:01:33;;;;;;;5.78;4.38;;;;;;;14.39;61.43;94260.88;521739;28;813;-46
2023/10/05 01:02:14;;;;;;;6.65;4.00;;;;;;;14.39;61.33;94266.44;521821;28;871;-48
2023/10/05 01:02:38;;;;;;;6.50;4.40;;;;;;;14.39;61.34;94262.91;521776;28;1222;-45
2023/10/05 01:03:33;;;;;;;6.90;5.05;;;;;;;14.26;61.36;94246.38;521677;28;849;-46
2023/10/05 01:04:17;;;;;;;8.32;5.53;;;;;;;14.36;61.33;94264.75;521591;28;929;-46
2023/10/05 01:05:09;;;;;;;7.13;5.28;;;;;;;14.32;61.11;94264.38;521852;28;848;-47
2023/10/05 01:05:35;;;;;;;9.60;5.05;;;;;;;14.32;61.34;94260.88;521703;28;885;-46
2023/10/05 01:06:10;;;;;;;6.68;4.28;;;;;;;14.21;61.28;94244.53;521769;28;951;-47
2023/10/05 01:06:39;;;;;;;8.20;5.50;;;;;;;14.31;61.43;94264.94;521724;28;931;-46
2023/10/05 01:06:56;;;;;;;7.15;4.63;;;;;;;14.31;61.52;94264.94;521693;28;1080;-47
2023/10/05 01:07:18;;;;;;;6.93;4.43;;;;;;;14.23;61.60;94253.03;521631;28;878;-47
2023/10/05 01:07:56;;;;;;;9.03;5.20;;;;;;;14.30;61.93;94266.22;521685;28;803;-46
2023/10/05 01:08:15;;;;;;;7.05;4.70;;;;;;;14.31;62.08;94264.94;521576;28;884;-47
2023/10/05 01:08:32;;;;;;;9.27;5.03;;;;;;;14.31;62.28;94265.69;521621;28;966;-46
2023/10/05 01:08:59;;;;;;;8.55;5.13;;;;;;;14.31;62.11;94264.94;521622;28;858;-46
2023/10/05 01:10:21;;;;;;;5.65;4.45;;;;;;;14.32;61.99;94264.38;521580;28;871;-48
2023/10/05 01:10:43;;;;;;;7.57;4.45;;;;;;;14.32;61.35;94260.88;521677;28;698;-47
2023/10/05 01:11:01;;;;;;;7.38;4.82;;;;;;;14.32;61.21;94260.88;521647;28;1064;-47
2023/10/05 01:11:33;;;;;;;6.30;5.00;;;;;;;14.33;61.20;94267.91;519401;28;2088;-46
2023/10/05 01:12:02;;;;;;;7.20;4.75;;;;;;;14.33;61.19;94259.59;519566;28;955;-46
2023/10/05 01:12:43;;;;;;;8.35;4.90;;;;;;;14.33;61.32;94257.56;519659;28;812;-46
2023/10/05 01:13:00;;;;;;;6.25;4.50;;;;;;;14.33;61.26;94262.34;519542;28;966;-46
2023/10/05 01:13:32;;;;;;;7.20;4.47;;;;;;;14.33;61.22;94259.59;521702;28;920;-47
2023/10/05 01:13:48;;;;;;;7.35;4.53;;;;;;;14.34;61.20;94263.81;521752;28;888;-46
2023/10/05 01:14:04;;;;;;;6.90;4.78;;;;;;;14.32;61.39;94258.09;521546;28;857;-47
2023/10/05 01:14:23;;;;;;;7.27;4.80;;;;;;;14.26;61.48;94243.63;521639;28;857;-47
2023/10/05 01:14:46;;;;;;;5.55;4.38;;;;;;;14.33;61.61;94262.34;521580;28;868;-47
2023/10/05 01:15:05;;;;;;;7.68;5.13;;;;;;;14.32;61.50;94258.84;521650;28;1132;-47
2023/10/05 01:15:21;;;;;;;7.32;5.18;;;;;;;14.32;61.64;94260.88;521612;28;836;-47
2023/10/05 01:15:37;;;;;;;8.20;5.07;;;;;;;14.30;61.74;94257.91;519596;28;873;-46
2023/10/05 01:15:54;;;;;;;7.88;4.95;;;;;;;14.32;61.81;94263.63;520190;28;813;-46
2023/10/05 01:16:20;;;;;;;6.70;4.30;;;;;;;14.31;61.74;94257.34;521554;28;885;-47
2023/10/05 01:16:36;;;;;;;7.60;5.35;;;;;;;14.32;61.76;94256.06;521595;28;836;-45
2023/10/05 01:16:54;;;;;;;8.13;5.57;;;;;;;14.32;61.82;94258.84;521572;28;892;-46
2023/10/05 01:17:09;;;;;;;7.55;4.93;;;;;;;14.33;61.80;94257.56;521540;28;1106;-46
2023/10/05 01:17:26;;;;;;;6.13;4.20;;;;;;;14.33;61.70;94256.81;521525;28;877;-46
2023/10/05 01:17:41;;;;;;;7.50;4.63;;;;;;;14.33;61.76;94260.34;521779;28;833;-47
2023/10/05 01:17:57;;;;;;;8.05;4.90;;;;;;;14.32;61.65;94256.06;521798;28;832;-45
2023/10/05 01:18:13;;;;;;;7.28;4.75;;;;;;;14.32;61.51;94258.09;521730;28;904;-46
2023/10/05 01:18:30;;;;;;;6.33;4.60;;;;;;;14.31;61.75;94260.13;521750;28;785;-47
2023/10/05 01:18:46;;;;;;;7.10;4.63;;;;;;;14.31;61.77;94260.13;521764;28;1006;-45
2023/10/05 01:19:07;;;;;;;7.68;4.90;;;;;;;14.31;61.83;94264.94;521759;28;877;-46
2023/10/05 01:19:23;;;;;;;6.30;4.70;;;;;;;14.30;61.83;94261.44;521696;28;852;-46
2023/10/05 01:19:41;;;;;;;8.57;4.43;;;;;;;14.31;61.73;94262.19;521843;28;849;-47
2023/10/05 01:20:07;;;;;;;9.02;4.72;;;;;;;14.30;62.01;94257.91;521616;28;1692;-46
2023/10/05 01:20:23;;;;;;;6.35;4.65;;;;;;;14.29;62.13;94256.44;521593;28;845;-46
2023/10/05 01:20:38;;;;;;;6.72;4.75;;;;;;;14.29;62.21;94253.66;521627;28;885;-46
2023/10/05 01:21:00;;;;;;;8.02;4.97;;;;;;;14.29;62.27;94262.72;521579;28;856;-46
2023/10/05 01:21:17;;;;;;;8.93;4.75;;;;;;;14.28;62.13;94255.66;521568;28;841;-46
2023/10/05 01:21:34;;;;;;;9.13;4.95;;;;;;;14.28;62.13;94266.03;521562;28;829;-47
2023/10/05 01:21:51;;;;;;;6.30;4.65;;;;;;;14.28;62.22;94255.66;521672;28;853;-47
2023/10/05 01:22:11;;;;;;;6.78;4.53;;;;;;;14.28;62.18;94258.44;521691;28;840;-48
2023/10/05 01:22:40;;;;;;;7.22;4.68;;;;;;;14.28;62.16;94254.91;521776;28;845;-46
2023/10/05 01:23:01;;;;;;;8.45;5.05;;;;;;;14.28;62.35;94266.03;521667;28;1004;-46
2023/10/05 01:23:16;;;;;;;10.88;5.43;;;;;;;14.26;62.31;94251.94;521744;28;957;-45
2023/10/05 01:23:38;;;;;;;9.40;5.60;;;;;;;14.26;62.36;94255.47;521766;28;781;-47
2023/10/05 01:23:53;;;;;;;8.25;5.28;;;;;;;14.28;62.40;94260.47;521745;28;1078;-47
2023/10/05 01:24:10;;;;;;;6.60;4.93;;;;;;;14.27;62.36;94259.00;521744;28;1251;-47
2023/10/05 01:24:26;;;;;;;6.32;4.70;;;;;;;14.27;62.43;94259.72;521747;28;820;-46
2023/10/05 01:24:41;;;;;;;6.32;4.25;;;;;;;14.27;62.43;94253.44;521780;28;856;-49
2023/10/05 01:24:58;;;;;;;7.70;4.60;;;;;;;14.22;62.46;94248.78;521628;28;2505;-47
2023/10/05 01:25:14;;;;;;;8.10;4.85;;;;;;;14.27;62.36;94253.44;521666;28;1918;-47
2023/10/05 01:25:30;;;;;;;6.93;4.68;;;;;;;14.27;62.50;94259.00;521703;28;860;-46
2023/10/05 01:25:45;;;;;;;7.47;4.77;;;;;;;14.27;62.34;94259.00;521748;28;785;-46
2023/10/05 01:26:01;;;;;;;7.00;4.60;;;;;;;14.20;62.40;94243.81;521725;28;773;-46
2023/10/05 01:26:16;;;;;;;5.57;4.27;;;;;;;14.26;62.14;94258.25;521659;28;880;-48
2023/10/05 01:26:32;;;;;;;7.20;4.43;;;;;;;14.26;62.26;94260.28;521740;28;813;-47
2023/10/05 01:26:49;;;;;;;10.30;4.97;;;;;;;14.27;62.34;94259.00;521696;28;968;-46
2023/10/05 01:27:04;;;;;;;7.75;4.88;;;;;;;14.27;62.34;94264.56;521699;28;916;-47
2023/10/05 01:27:21;;;;;;;7.35;4.80;;;;;;;14.27;62.34;94264.56;521723;28;844;-47
2023/10/05 01:27:36;;;;;;;6.88;4.60;;;;;;;14.27;62.31;94259.00;521767;28;908;-46
2023/10/05 01:27:52;;;;;;;5.45;4.45;;;;;;;14.28;62.24;94257.69;521757;28;828;-47
2023/10/05 01:28:07;;;;;;;5.90;4.53;;;;;;;14.28;62.27;94257.69;521741;28;824;-47
2023/10/05 01:28:23;;;;;;;5.90;4.50;;;;;;;14.29;62.33;94259.22;521702;28;837;-46
2023/10/05 01:28:41;;;;;;;6.73;4.70;;;;;;;14.15;62.35;94241.19;521771;28;858;-46
2023/10/05 01:28:56;;;;;;;6.65;4.50;;;;;;;14.28;62.18;94257.69;521710;28;982;-46
2023/10/05 01:29:12;;;;;;;6.47;4.40;;;;;;;14.28;62.09;94260.47;521778;28;868;-46
2023/10/05 01:29:28;;;;;;;10.05;4.90;;;;;;;14.28;62.04;94257.69;521782;28;821;-46
2023/10/05 01:29:43;;;;;;;10.40;4.73;;;;;;;14.28;61.97;94257.69;521744;28;1119;-46
2023/10/05 01:30:00;;;;;;;7.70;4.45;;;;;;;14.27;61.89;94256.94;521777;28;888;-47
2023/10/05 01:30:15;;;;;;;5.47;4.50;;;;;;;14.27;61.94;94256.22;521660;28;1585;-46
2023/10/05 01:30:30;;;;;;;5.60;4.27;;;;;;;14.27;61.90;94259.72;521784;28;789;-46
2023/10/05 01:30:46;;;;;;;6.72;4.38;;;;;;;14.26;61.76;94254.72;521735;28;825;-47
2023/10/05 01:31:04;;;;;;;6.13;4.37;;;;;;;14.27;61.78;94259.00;521745;28;892;-46
2023/10/05 01:31:21;;;;;;;6.72;4.22;;;;;;;14.28;61.81;94254.91;521681;28;822;-46
2023/10/05 01:31:39;;;;;;;7.95;4.70;;;;;;;14.27;61.78;94261.78;521819;28;967;-45
2023/10/05 01:31:55;;;;;;;6.65;4.45;;;;;;;14.26;61.62;94260.28;521681;28;868;-47
2023/10/05 01:32:10;;;;;;;5.35;4.15;;;;;;;14.26;61.62;94265.84;521739;28;931;-46
2023/10/05 01:32:27;;;;;;;5.72;4.05;;;;;;;14.24;61.80;94260.84;521376;27;1021;-46
2023/10/05 01:32:44;;;;;;;5.40;3.97;;;;;;;14.25;61.86;94259.53;521692;28;932;-45
2023/10/05 01:33:01;;;;;;;4.97;4.22;;;;;;;14.24;61.99;94258.06;521738;28;825;-47
2023/10/05 01:33:17;;;;;;;5.53;4.28;;;;;;;14.25;62.02;94262.31;520892;28;1294;-46
2023/10/05 01:33:33;;;;;;;6.63;4.20;;;;;;;14.24;62.01;94258.06;519659;28;976;-46
2023/10/05 01:33:48;;;;;;;6.63;4.07;;;;;;;14.24;61.95;94266.41;519619;28;931;-48
2023/10/05 01:34:04;;;;;;;5.60;4.13;;;;;;;14.23;62.40;94256.56;519464;28;1180;-45
2023/10/05 01:34:20;;;;;;;5.30;4.43;;;;;;;14.24;62.13;94260.09;519648;28;841;-46
2023/10/05 01:34:36;;;;;;;5.72;4.50;;;;;;;14.22;62.20;94257.13;519633;28;850;-47
2023/10/05 01:34:52;;;;;;;6.45;4.57;;;;;;;14.21;62.21;94250.81;519677;28;860;-46
2023/10/05 01:35:08;;;;;;;7.77;4.60;;;;;;;14.21;62.40;94250.81;519671;28;1215;-46
2023/10/05 01:35:24;;;;;;;7.07;4.53;;;;;;;14.21;62.41;94258.41;519582;28;1014;-47
2023/10/05 01:35:44;;;;;;;6.53;4.65;;;;;;;14.20;62.60;94259.72;519665;28;911;-46
2023/10/05 01:35:59;;;;;;;6.68;5.00;;;;;;;14.19;62.71;94249.88;519726;28;880;-46